createdAt,value
2019-01-24T00:02:18.780Z,81.31
2019-01-24T00:08:23.817Z,81.48
2019-01-24T00:14:28.628Z,82.18
2019-01-24T00:20:33.453Z,82.16
2019-01-24T00:26:38.287Z,82.29
2019-01-24T00:32:43.677Z,81.79
2019-01-24T00:38:48.383Z,80.58
2019-01-24T00:44:53.053Z,80.11
2019-01-24T00:50:57.874Z,81.18
2019-01-24T00:57:02.598Z,82.04
2019-01-24T01:03:07.388Z,81.80
2019-01-24T01:09:12.129Z,81.42
2019-01-24T01:15:19.709Z,81.46
2019-01-24T01:21:24.374Z,81.26
2019-01-24T01:27:29.160Z,80.95
2019-01-24T01:33:33.803Z,79.47
2019-01-24T01:39:38.409Z,80.23
2019-01-24T01:45:43.556Z,80.45
2019-01-24T01:51:48.277Z,80.65
2019-01-24T01:57:54.915Z,80.42
2019-01-24T02:03:59.507Z,80.10
2019-01-24T02:10:09.516Z,79.67
2019-01-24T02:16:14.504Z,79.42
2019-01-24T02:22:19.207Z,79.52
2019-01-24T02:28:23.797Z,79.20
2019-01-24T02:34:28.353Z,78.63
2019-01-24T02:40:33.174Z,77.99
2019-01-24T02:46:37.787Z,77.78
2019-01-24T02:52:45.559Z,77.48
2019-01-24T02:58:50.269Z,76.47
2019-01-24T03:04:57.121Z,75.81
2019-01-24T03:11:01.710Z,76.27
2019-01-24T03:17:06.471Z,76.37
2019-01-24T03:23:11.559Z,76.04
2019-01-24T03:29:18.223Z,76.09
2019-01-24T03:35:25.871Z,75.45
2019-01-24T03:41:30.580Z,75.60
2019-01-24T03:47:35.211Z,75.54
2019-01-24T03:53:41.693Z,74.43
2019-01-24T03:59:46.713Z,74.76
2019-01-24T04:05:51.450Z,74.73
2019-01-24T04:11:59.227Z,74.29
2019-01-24T04:18:03.922Z,74.00
2019-01-24T04:24:08.563Z,73.30
2019-01-24T04:30:20.556Z,73.96
2019-01-24T04:36:25.195Z,74.20
2019-01-24T04:42:29.847Z,73.89
2019-01-24T04:48:34.761Z,74.01
2019-01-24T04:54:39.670Z,73.49
2019-01-24T05:00:44.650Z,74.38
2019-01-24T05:06:49.910Z,75.21
2019-01-24T05:12:56.373Z,75.57
2019-01-24T05:19:01.011Z,75.83
2019-01-24T05:25:11.466Z,75.39
2019-01-24T05:31:16.163Z,75.20
2019-01-24T05:37:21.121Z,73.78
2019-01-24T05:43:25.901Z,74.33
2019-01-24T05:49:30.629Z,74.42
2019-01-24T05:55:35.196Z,74.71
2019-01-24T06:01:41.023Z,74.21
2019-01-24T06:07:46.014Z,74.14
2019-01-24T06:13:50.677Z,74.54
2019-01-24T06:19:55.293Z,74.68
2019-01-24T06:25:59.937Z,75.23
2019-01-24T06:32:04.873Z,75.35
2019-01-24T06:38:09.797Z,75.71
2019-01-24T06:44:14.754Z,75.95
2019-01-24T06:50:20.536Z,75.73
2019-01-24T06:56:31.303Z,75.51
2019-01-24T07:02:35.999Z,75.97
2019-01-24T07:08:41.828Z,75.90
2019-01-24T07:14:49.383Z,76.00
2019-01-24T07:20:54.239Z,76.21
2019-01-24T07:26:58.958Z,75.73
2019-01-24T07:33:03.783Z,76.00
2019-01-24T07:39:09.105Z,76.25
2019-01-24T07:45:23.974Z,75.68
2019-01-24T07:51:28.629Z,75.80
2019-01-24T07:57:33.351Z,75.75
2019-01-24T08:03:38.259Z,76.18
2019-01-24T08:09:43.004Z,75.18
2019-01-24T08:15:47.665Z,75.55
2019-01-24T08:21:52.246Z,74.55
2019-01-24T08:27:56.985Z,75.11
2019-01-24T08:34:01.545Z,74.65
2019-01-24T08:40:11.298Z,74.05
2019-01-24T08:46:16.148Z,74.52
2019-01-24T08:52:20.872Z,73.71
2019-01-24T08:58:25.434Z,73.86
2019-01-24T09:04:30.070Z,74.24
2019-01-24T09:10:39.196Z,73.24
2019-01-24T09:16:44.355Z,74.21
2019-01-24T09:22:54.979Z,73.52
2019-01-24T09:28:57.082Z,73.40
2019-01-24T09:35:01.985Z,74.30
2019-01-24T09:41:06.606Z,74.19
2019-01-24T09:47:12.074Z,73.94
2019-01-24T09:53:16.795Z,74.13
2019-01-24T09:59:21.367Z,74.11
2019-01-24T10:05:26.008Z,73.93
2019-01-24T10:11:30.726Z,73.80
2019-01-24T10:17:35.390Z,74.96
2019-01-24T10:23:40.252Z,75.10
2019-01-24T10:29:45.410Z,74.09
2019-01-24T10:35:50.053Z,74.71
2019-01-24T10:41:54.648Z,75.16
2019-01-24T10:48:00.591Z,75.08
2019-01-24T10:54:05.393Z,74.89
2019-01-24T11:00:23.172Z,75.51
2019-01-24T11:06:28.054Z,74.71
2019-01-24T11:12:33.652Z,74.43
2019-01-24T11:18:38.569Z,73.89
2019-01-24T11:24:43.498Z,73.96
2019-01-24T11:30:48.246Z,73.64
2019-01-24T11:36:57.063Z,72.74
2019-01-24T11:42:59.477Z,72.90
2019-01-24T11:49:04.091Z,71.57
2019-01-24T11:55:13.059Z,71.93
2019-01-24T12:01:19.987Z,71.32
2019-01-24T12:07:24.290Z,71.87
2019-01-24T12:13:29.113Z,72.94
2019-01-24T12:19:33.692Z,73.16
2019-01-24T12:25:38.515Z,73.39
2019-01-24T12:31:43.920Z,74.30
2019-01-24T12:37:48.741Z,74.52
2019-01-24T12:43:53.406Z,73.46
2019-01-24T12:49:58.286Z,73.72
2019-01-24T12:56:02.989Z,74.29
2019-01-24T13:02:07.945Z,73.61
2019-01-24T13:08:12.736Z,73.00
2019-01-24T13:14:17.538Z,72.34
2019-01-24T13:20:22.271Z,71.82
2019-01-24T13:26:26.923Z,72.90
2019-01-24T13:32:31.560Z,74.43
2019-01-24T13:38:37.550Z,75.28
2019-01-24T13:44:42.407Z,74.12
2019-01-24T13:50:47.126Z,74.64
2019-01-24T13:56:51.836Z,73.60
2019-01-24T14:03:07.208Z,73.71
2019-01-24T14:09:12.955Z,73.80
2019-01-24T14:15:19.697Z,74.69
2019-01-24T14:21:25.323Z,75.43
2019-01-24T14:27:30.252Z,75.23
2019-01-24T14:33:34.922Z,75.14
2019-01-24T14:39:39.592Z,74.91
2019-01-24T14:45:44.789Z,75.30
2019-01-24T14:51:52.669Z,75.07
2019-01-24T14:57:57.392Z,75.48
2019-01-24T15:04:02.910Z,75.75
2019-01-24T15:10:13.063Z,75.92
2019-01-24T15:16:17.884Z,76.20
2019-01-24T15:22:24.356Z,76.30
2019-01-24T15:28:29.093Z,76.90
2019-01-24T15:34:34.090Z,76.76
2019-01-24T15:40:38.833Z,77.08
2019-01-24T15:46:43.869Z,77.40
2019-01-24T15:52:48.671Z,77.54
2019-01-24T15:58:53.337Z,77.77
2019-01-24T16:04:58.207Z,78.31
2019-01-24T16:11:02.989Z,78.73
2019-01-24T16:17:07.695Z,79.30
2019-01-24T16:23:12.373Z,79.61
2019-01-24T16:29:17.163Z,79.55
2019-01-24T16:35:22.314Z,79.85
2019-01-24T16:41:26.913Z,80.08
2019-01-24T16:47:31.551Z,80.32
2019-01-24T16:53:36.129Z,80.35
2019-01-24T16:59:40.907Z,80.53
2019-01-24T17:05:45.909Z,80.74
2019-01-24T17:11:50.732Z,81.06
2019-01-24T17:17:55.438Z,81.23
2019-01-24T17:24:00.249Z,80.94
2019-01-24T17:30:08.009Z,81.11
2019-01-24T17:36:15.101Z,81.08
2019-01-24T17:42:19.782Z,81.53
2019-01-24T17:48:24.336Z,81.85
2019-01-24T17:54:30.237Z,82.32
2019-01-24T18:00:36.444Z,82.66
2019-01-24T18:12:51.047Z,82.35
2019-01-24T18:18:56.031Z,82.67
2019-01-24T18:25:00.694Z,82.35
2019-01-24T18:31:06.396Z,82.36
2019-01-24T18:37:11.071Z,82.26
2019-01-24T18:43:18.462Z,82.69
2019-01-24T18:49:23.124Z,82.61
2019-01-24T18:55:27.773Z,83.00
2019-01-24T19:01:32.487Z,82.86
2019-01-24T19:07:38.093Z,82.75
2019-01-24T19:13:43.433Z,82.74
2019-01-24T19:19:47.997Z,82.25
2019-01-24T19:25:52.706Z,82.36
2019-01-24T19:31:57.869Z,82.72
2019-01-24T19:38:02.749Z,82.85
2019-01-24T19:44:07.437Z,82.95
2019-01-24T19:50:16.730Z,82.88
2019-01-24T19:56:21.297Z,82.77
2019-01-24T20:02:25.929Z,82.73
2019-01-24T20:08:30.544Z,82.41
2019-01-24T20:14:35.466Z,82.21
2019-01-24T20:20:40.314Z,82.77
2019-01-24T20:26:45.351Z,82.10
2019-01-24T20:32:50.797Z,82.52
2019-01-24T20:38:55.621Z,83.27
2019-01-24T20:45:00.369Z,82.60
2019-01-24T20:51:08.137Z,82.52
2019-01-24T20:57:13.339Z,82.80
2019-01-24T21:03:18.079Z,83.06
2019-01-24T21:09:22.839Z,82.59
2019-01-24T21:15:27.653Z,83.09
2019-01-24T21:21:32.376Z,82.46
2019-01-24T21:27:36.985Z,83.28
2019-01-24T21:33:42.864Z,83.66
2019-01-24T21:39:47.611Z,83.86
2019-01-24T21:45:52.303Z,83.66
2019-01-24T21:51:56.945Z,83.25
2019-01-24T21:58:01.663Z,82.05
2019-01-24T22:04:06.528Z,82.90
2019-01-24T22:10:15.807Z,82.46
2019-01-24T22:16:20.625Z,83.01
2019-01-24T22:22:25.291Z,82.89
2019-01-24T22:28:29.961Z,84.79
2019-01-24T22:34:34.587Z,84.06
2019-01-24T22:40:39.473Z,83.41
2019-01-24T22:46:44.218Z,82.46
2019-01-24T22:52:48.967Z,83.16
2019-01-24T22:58:53.653Z,83.18
2019-01-24T23:04:58.322Z,83.59
2019-01-24T23:11:03.420Z,83.25
2019-01-24T23:17:08.208Z,82.93
2019-01-24T23:23:13.397Z,83.21
2019-01-24T23:29:18.362Z,82.93
2019-01-24T23:35:23.269Z,82.72
2019-01-24T23:41:28.021Z,83.05
2019-01-24T23:47:32.671Z,83.10
2019-01-24T23:53:37.357Z,82.93
2019-01-24T23:59:42.187Z,83.17
